^^
Saratoga-Weather Station Historical Data
Daily Summary for January 20, 2020 Units:  Metric    English   Both
Daily Weekly Monthly Yearly Custom
  High: Low: Average:
Temperature: 21 °C 17.1 °C 19.1 °C
Dew Point: 10.9 °C 9.9 °C 10.5 °C
Humidity: 66% 50% 58%
Wind Speed: 7.9km/h 0km/h 1.2km/h
Wind Gust: 8km/h - -
Wind- - SW
Pressure: 1014.2 hPa 1013.9 hPa -
Precipitation: 0.0 mm    
Historical Graphs
 
 
Tabular Data for January 20, 2020
Time Temperature Dew Point Pressure Wind Wind Speed Wind Gust Humidity Rainfall Rate (Hourly) solar
00:00 21 °C 10.2 °C 1014.2 hPa SW 3.2 km/h 3.2 km/h 50% 0.0 mm 0 W/m2
00:05 20.8 °C 10 °C 1014.2 hPa SW 1.4 km/h 3.2 km/h 50% 0.0 mm 0 W/m2
00:11 20.7 °C 9.9 °C 1014.2 hPa SW 1.4 km/h 4.8 km/h 50% 0.0 mm 0 W/m2
00:16 20.6 °C 10.1 °C 1014.2 hPa WSW 7.9 km/h 8 km/h 51% 0.0 mm 0 W/m2
00:21 20.6 °C 10.1 °C 1014.2 hPa SW 4.7 km/h 4.8 km/h 51% 0.0 mm 0 W/m2
00:26 20.7 °C 9.9 °C 1014.2 hPa SW 3.2 km/h 8 km/h 50% 0.0 mm 0 W/m2
00:31 20.8 °C 10 °C 1014.2 hPa SW 1.4 km/h 4.8 km/h 50% 0.0 mm 0 W/m2
00:36 20.9 °C 10.1 °C 1014.2 hPa Calm   1.6 km/h 50% 0.0 mm 0 W/m2
00:41 20.9 °C 10.4 °C 1014.2 hPa West 3.2 km/h 4.8 km/h 51% 0.0 mm 0 W/m2
00:46 20.8 °C 10.3 °C 1014.2 hPa Calm     51% 0.0 mm 0 W/m2
00:51 20.6 °C 10.1 °C 1014.2 hPa SSW 1.4 km/h 4.8 km/h 51% 0.0 mm 0 W/m2
00:56 20.5 °C 10 °C 1014.2 hPa Calm   1.6 km/h 51% 0.0 mm 0 W/m2
01:01 20.4 °C 10.5 °C 1014.2 hPa SSW 1.4 km/h 3.2 km/h 53% 0.0 mm 0 W/m2
01:06 20.3 °C 10.4 °C 1014.2 hPa SSW 1.4 km/h 3.2 km/h 53% 0.0 mm 0 W/m2
01:11 20.2 °C 10.3 °C 1014.2 hPa SSW 3.2 km/h 4.8 km/h 53% 0.0 mm 0 W/m2
01:16 20.2 °C 10.3 °C 1014.2 hPa Calm   1.6 km/h 53% 0.0 mm 0 W/m2
01:21 20.1 °C 10.2 °C 1014.2 hPa WSW 1.4 km/h 3.2 km/h 53% 0.0 mm 0 W/m2
01:26 20.2 °C 10.3 °C 1014.2 hPa WSW 1.4 km/h 4.8 km/h 53% 0.0 mm 0 W/m2
01:31 20.2 °C 10.3 °C 1014.2 hPa West 4.7 km/h 6.4 km/h 53% 0.0 mm 0 W/m2
01:36 20.3 °C 10.4 °C 1014.2 hPa WNW 1.4 km/h 3.2 km/h 53% 0.0 mm 0 W/m2
01:41 20.3 °C 10.4 °C 1014.2 hPa Calm   1.6 km/h 53% 0.0 mm 0 W/m2
01:46 20.2 °C 10.6 °C 1014.2 hPa WSW 1.4 km/h 1.6 km/h 54% 0.0 mm 0 W/m2
01:51 20.1 °C 10.8 °C 1014.2 hPa WSW 3.2 km/h 3.2 km/h 55% 0.0 mm 0 W/m2
01:56 20 °C 10.7 °C 1014.2 hPa South 1.4 km/h 3.2 km/h 55% 0.0 mm 0 W/m2
02:01 19.9 °C 10.6 °C 1014.2 hPa SSW 1.4 km/h 3.2 km/h 55% 0.0 mm 0 W/m2
02:06 19.9 °C 10.3 °C 1014.2 hPa SSW 1.4 km/h 3.2 km/h 54% 0.0 mm 0 W/m2
02:11 19.8 °C 10.2 °C 1014.2 hPa WSW 4.7 km/h 6.4 km/h 54% 0.0 mm 0 W/m2
02:16 20 °C 10.1 °C 1014.2 hPa SW 1.4 km/h 4.8 km/h 53% 0.0 mm 0 W/m2
02:21 20.1 °C 10.8 °C 1014.2 hPa SW 3.2 km/h 6.4 km/h 55% 0.0 mm 0 W/m2
02:26 20 °C 10.4 °C 1014.2 hPa Calm   4.8 km/h 54% 0.0 mm 0 W/m2
02:31 19.9 °C 10.6 °C 1014.2 hPa SW 1.4 km/h 3.2 km/h 55% 0.0 mm 0 W/m2
02:36 19.7 °C 10.7 °C 1014.2 hPa SW 1.4 km/h 4.8 km/h 56% 0.0 mm 0 W/m2
02:41 19.5 °C 10.8 °C 1014.2 hPa SW 1.4 km/h 3.2 km/h 57% 0.0 mm 0 W/m2
02:47 19.3 °C 10.6 °C 1014.2 hPa Calm   1.6 km/h 57% 0.0 mm 0 W/m2
02:52 19.2 °C 10.7 °C 1013.9 hPa Calm   3.2 km/h 58% 0.0 mm 0 W/m2
02:57 19 °C 10.8 °C 1013.9 hPa Calm     59% 0.0 mm 0 W/m2
03:02 18.8 °C 10.6 °C 1013.9 hPa Calm     59% 0.0 mm 0 W/m2
03:07 18.6 °C 10.7 °C 1013.9 hPa Calm     60% 0.0 mm 0 W/m2
03:12 18.3 °C 10.6 °C 1013.9 hPa Calm     61% 0.0 mm 0 W/m2
03:17 18.1 °C 10.5 °C 1013.9 hPa Calm     61% 0.0 mm 0 W/m2
03:22 17.9 °C 10.5 °C 1013.9 hPa Calm   3.2 km/h 62% 0.0 mm 0 W/m2
03:27 17.7 °C 10.6 °C 1013.9 hPa Calm     63% 0.0 mm 0 W/m2
03:32 17.6 °C 10.5 °C 1013.9 hPa SW 1.4 km/h 1.6 km/h 63% 0.0 mm 0 W/m2
03:37 17.4 °C 10.8 °C 1013.9 hPa SW 1.4 km/h 1.6 km/h 65% 0.0 mm 0 W/m2
03:42 17.3 °C 10.7 °C 1013.9 hPa Calm   1.6 km/h 65% 0.0 mm 0 W/m2
03:47 17.3 °C 10.7 °C 1013.9 hPa SW 1.4 km/h 1.6 km/h 65% 0.0 mm 0 W/m2
03:52 17.2 °C 10.6 °C 1013.9 hPa Calm     65% 0.0 mm 0 W/m2
03:57 17.1 °C 10.7 °C 1013.9 hPa Calm     66% 0.0 mm 0 W/m2
04:02 17.1 °C 10.7 °C 1013.9 hPa Calm     66% 0.0 mm 0 W/m2
04:07 17.2 °C 10.6 °C 1013.9 hPa SW 3.2 km/h 3.2 km/h 65% 0.0 mm 0 W/m2
04:12 17.5 °C 10.6 °C 1013.9 hPa Calm   1.6 km/h 64% 0.0 mm 0 W/m2
04:17 17.7 °C 10.3 °C 1014.2 hPa Calm   4.8 km/h 62% 0.0 mm 0 W/m2
04:22 17.9 °C 10.5 °C 1014.2 hPa SW 3.2 km/h 4.8 km/h 62% 0.0 mm 0 W/m2
04:27 18 °C 10.4 °C 1014.2 hPa Calm   3.2 km/h 61% 0.0 mm 0 W/m2
04:32 18.1 °C 10.5 °C 1014.2 hPa Calm   4.8 km/h 61% 0.0 mm 0 W/m2
04:37 18.2 °C 10.6 °C 1014.2 hPa WSW 1.4 km/h 3.2 km/h 61% 0.0 mm 0 W/m2
04:42 18.2 °C 10.6 °C 1014.2 hPa Calm   1.6 km/h 61% 0.0 mm 0 W/m2
04:47 18.2 °C 10.8 °C 1014.2 hPa WSW 1.4 km/h 3.2 km/h 62% 0.0 mm 0 W/m2
04:52 18.1 °C 10.7 °C 1014.2 hPa SW 1.4 km/h 3.2 km/h 62% 0.0 mm 0 W/m2
04:58 17.9 °C 10.8 °C 1014.2 hPa Calm     63% 0.0 mm 0 W/m2
05:03 17.8 °C 10.7 °C 1014.2 hPa SW 1.4 km/h 3.2 km/h 63% 0.0 mm 0 W/m2
05:08 17.7 °C 10.6 °C 1014.2 hPa Calm   3.2 km/h 63% 0.0 mm 0 W/m2
05:13 17.8 °C 10.7 °C 1014.2 hPa Calm   3.2 km/h 63% 0.0 mm 0 W/m2
05:18 17.8 °C 10.9 °C 1014.2 hPa Calm   1.6 km/h 64% 0.0 mm 0 W/m2
05:23 17.8 °C 10.9 °C 1014.2 hPa Calm   1.6 km/h 64% 0.0 mm 0 W/m2
05:28 17.7 °C 10.8 °C 1014.2 hPa Calm   1.6 km/h 64% 0.0 mm 0 W/m2
05:33 17.7 °C 10.8 °C 1014.2 hPa Calm   1.6 km/h 64% 0.0 mm 0 W/m2
05:38 17.6 °C 10.9 °C 1014.2 hPa Calm   1.6 km/h 65% 0.0 mm 0 W/m2
05:43 17.5 °C 10.8 °C 1014.2 hPa Calm     65% 0.0 mm 0 W/m2
Juneau County Weather
Compliments of Weather Underground - 2 mb